Time;durP1;ratioP1;P1;durP2;ratioP2;P2;SDS_P1;SDS_P2;PMS_P1;PMS_P2;Temp;Humidity;BMP_temperature;BMP_pressure;BME280_temperature;BME280_humidity;BME280_pressure;Samples;Min_cycle;Max_cycle;Signal;HPM_P1;HPM_P2
2023/03/16 00:00:52;;;;;;;10.85;4.80;;;18.50;61.90;;;;;;5053993;28;20071;-66
2023/03/16 00:03:20;;;;;;;11.30;5.35;;;18.50;61.90;;;;;;5052803;28;20052;-66
2023/03/16 00:05:47;;;;;;;12.25;4.43;;;18.40;61.80;;;;;;5052291;28;20481;-66
2023/03/16 00:08:16;;;;;;;14.43;5.43;;;18.40;61.80;;;;;;5070748;28;20064;-66
2023/03/16 00:10:45;;;;;;;11.82;4.72;;;18.40;61.80;;;;;;5044813;28;20060;-66
2023/03/16 00:13:13;;;;;;;13.10;5.10;;;18.40;61.80;;;;;;5053631;28;20102;-66
2023/03/16 00:15:40;;;;;;;11.23;3.63;;;18.40;61.70;;;;;;5052423;28;20450;-66
2023/03/16 00:18:07;;;;;;;12.93;4.65;;;18.40;61.80;;;;;;5052225;28;20067;-66
2023/03/16 00:20:34;;;;;;;11.48;4.07;;;18.40;61.70;;;;;;5050525;28;20056;-66
2023/03/16 00:23:01;;;;;;;13.23;4.35;;;18.40;61.70;;;;;;5073311;28;20416;-66
2023/03/16 00:25:32;;;;;;;12.32;4.57;;;18.30;61.70;;;;;;5091756;28;20067;-66
2023/03/16 00:28:01;;;;;;;14.07;5.78;;;18.40;61.70;;;;;;5073309;28;20544;-66
2023/03/16 00:30:30;;;;;;;11.38;4.45;;;18.40;61.60;;;;;;5058241;28;20072;-67
2023/03/16 00:32:57;;;;;;;10.98;4.15;;;18.40;61.60;;;;;;5069957;28;20059;-66
2023/03/16 00:35:24;;;;;;;12.90;4.95;;;18.40;61.50;;;;;;5091502;28;20127;-67
2023/03/16 00:37:51;;;;;;;11.38;4.28;;;18.40;61.40;;;;;;5091598;28;20056;-66
2023/03/16 00:40:18;;;;;;;12.95;4.38;;;18.50;61.40;;;;;;5071142;28;20048;-66
2023/03/16 00:42:46;;;;;;;11.90;4.63;;;18.50;61.30;;;;;;5051021;28;20060;-66
2023/03/16 00:45:13;;;;;;;10.50;2.90;;;18.50;61.20;;;;;;5050548;28;20045;-66
2023/03/16 00:47:41;;;;;;;9.38;3.47;;;18.60;61.20;;;;;;5050471;28;20509;-66
2023/03/16 00:50:09;;;;;;;15.07;5.05;;;18.60;61.10;;;;;;5050509;28;20107;-66
2023/03/16 00:52:36;;;;;;;11.00;4.40;;;18.70;61.10;;;;;;5033132;28;20057;-66
2023/03/16 00:55:03;;;;;;;9.27;3.60;;;18.70;61.00;;;;;;5050701;28;20048;-66
2023/03/16 00:57:30;;;;;;;9.75;4.25;;;18.80;60.90;;;;;;5070327;28;20048;-67
2023/03/16 00:59:59;;;;;;;9.00;3.80;;;18.80;60.80;;;;;;5070574;28;20113;-66
2023/03/16 01:02:26;;;;;;;10.68;3.13;;;18.90;60.70;;;;;;5052660;28;20048;-66
2023/03/16 01:04:54;;;;;;;8.80;3.10;;;18.90;60.50;;;;;;5033992;28;20057;-66
2023/03/16 01:07:21;;;;;;;9.52;3.60;;;19.00;60.50;;;;;;5050429;28;20485;-66
2023/03/16 01:09:49;;;;;;;9.63;4.65;;;19.00;60.30;;;;;;5041803;28;20055;-65
2023/03/16 01:12:18;;;;;;;8.50;3.10;;;19.10;60.30;;;;;;5090544;28;20052;-65
2023/03/16 01:14:45;;;;;;;10.60;3.97;;;19.10;60.20;;;;;;5072596;28;20088;-65
2023/03/16 01:17:16;;;;;;;10.00;3.75;;;19.10;60.10;;;;;;5049756;28;20059;-66
2023/03/16 01:19:43;;;;;;;9.98;2.97;;;19.10;60.10;;;;;;5056008;28;20051;-66
2023/03/16 01:22:11;;;;;;;10.20;3.78;;;19.20;60.10;;;;;;5067289;28;20040;-65
2023/03/16 01:24:39;;;;;;;9.15;3.65;;;19.20;60.70;;;;;;5068548;28;20041;-65
2023/03/16 01:27:07;;;;;;;10.43;4.95;;;19.20;60.00;;;;;;5069321;28;20072;-66
2023/03/16 01:29:34;;;;;;;7.35;3.40;;;19.10;60.00;;;;;;5050507;28;20524;-66
2023/03/16 01:32:02;;;;;;;9.68;4.18;;;19.10;60.00;;;;;;5047867;28;20056;-65
2023/03/16 01:34:31;;;;;;;11.23;4.50;;;19.10;60.00;;;;;;5056074;28;20078;-65
2023/03/16 01:36:59;;;;;;;9.07;2.88;;;19.10;60.00;;;;;;5051776;28;20808;-65
2023/03/16 01:39:26;;;;;;;9.40;3.53;;;19.10;60.00;;;;;;5068852;28;20490;-65
2023/03/16 01:41:53;;;;;;;9.63;3.50;;;19.10;60.00;;;;;;5050809;28;20063;-65
2023/03/16 01:44:23;;;;;;;9.10;3.90;;;19.10;60.00;;;;;;5051395;28;20076;-65
2023/03/16 01:46:50;;;;;;;8.30;2.85;;;19.00;60.00;;;;;;5069326;28;20409;-65
2023/03/16 01:49:22;;;;;;;10.80;3.85;;;19.00;60.10;;;;;;5070044;28;20056;-65
2023/03/16 01:51:55;;;;;;;11.80;4.45;;;18.90;60.00;;;;;;5050200;28;20105;-65
2023/03/16 01:54:25;;;;;;;9.02;3.13;;;18.90;60.00;;;;;;5049867;28;20037;-65
2023/03/16 01:57:00;;;;;;;10.15;3.50;;;18.90;60.00;;;;;;5051321;28;20048;-65
2023/03/16 01:59:31;;;;;;;9.55;3.42;;;18.90;60.10;;;;;;5056252;28;20055;-65
2023/03/16 02:01:59;;;;;;;7.80;3.30;;;18.90;60.10;;;;;;5072532;28;20534;-65
2023/03/16 02:04:42;;;;;;;9.27;3.72;;;18.80;60.10;;;;;;5073624;28;20040;-65
2023/03/16 02:07:11;;;;;;;9.10;3.75;;;18.80;60.10;;;;;;5055027;28;20088;-65
2023/03/16 02:09:41;;;;;;;;;;;18.80;60.20;;;;;;5055549;28;20517;-65
2023/03/16 02:12:17;;;;;;;9.05;2.88;;;18.80;60.10;;;;;;5072247;28;19966;-67
2023/03/16 02:14:44;;;;;;;;;;;18.70;60.10;;;;;;5056540;28;20049;-65
2023/03/16 02:17:12;;;;;;;7.63;2.65;;;18.70;60.10;;;;;;5057809;28;19929;-65
2023/03/16 02:19:52;;;;;;;8.55;3.33;;;18.70;60.20;;;;;;5037117;28;20056;-65
2023/03/16 02:22:23;;;;;;;9.43;3.22;;;18.60;60.20;;;;;;5071613;28;20048;-65
2023/03/16 02:24:50;;;;;;;10.05;3.97;;;18.60;60.20;;;;;;5054971;28;20063;-66
2023/03/16 02:27:25;;;;;;;8.80;3.45;;;18.60;60.20;;;;;;5072610;28;20048;-65
2023/03/16 02:30:07;;;;;;;5.88;2.30;;;18.60;60.20;;;;;;5070724;28;20401;-66
2023/03/16 02:32:36;;;;;;;9.43;3.65;;;18.50;60.20;;;;;;5054365;28;20052;-66
2023/03/16 02:35:04;;;;;;;8.00;3.35;;;18.50;60.20;;;;;;5072886;28;20040;-65
2023/03/16 02:37:33;;;;;;;10.65;3.67;;;18.50;60.20;;;;;;5068387;28;20051;-65
2023/03/16 02:40:00;;;;;;;9.60;3.97;;;18.50;60.20;;;;;;5042742;28;20047;-65
2023/03/16 02:42:29;;;;;;;10.05;4.30;;;18.50;60.20;;;;;;5075746;28;20504;-65
2023/03/16 02:44:58;;;;;;;9.20;3.63;;;18.50;60.20;;;;;;5068795;28;20048;-66
2023/03/16 02:47:32;;;;;;;9.15;3.80;;;18.40;60.20;;;;;;5053685;28;20048;-65
2023/03/16 02:49:59;;;;;;;7.60;3.80;;;18.50;60.20;;;;;;5035605;28;20064;-65
2023/03/16 02:52:27;;;;;;;9.10;3.13;;;18.50;60.20;;;;;;5071386;28;20415;-65
2023/03/16 02:54:53;;;;;;;6.97;3.58;;;18.40;60.20;;;;;;5055270;28;20071;-65
2023/03/16 02:57:21;;;;;;;7.20;3.13;;;18.40;60.20;;;;;;5073102;28;20127;-65
2023/03/16 02:59:47;;;;;;;6.05;3.33;;;18.40;60.10;;;;;;5054624;28;20101;-65
2023/03/16 03:02:15;;;;;;;6.63;3.20;;;18.40;60.00;;;;;;5049762;28;20052;-65
2023/03/16 03:04:45;;;;;;;6.43;2.13;;;18.50;60.00;;;;;;5053014;28;20596;-65
2023/03/16 03:07:13;;;;;;;6.63;3.10;;;18.50;60.00;;;;;;5045737;28;20050;-65
2023/03/16 03:09:41;;;;;;;7.72;3.33;;;18.50;60.00;;;;;;5054568;28;20049;-66
2023/03/16 03:12:09;;;;;;;7.00;3.13;;;18.60;59.90;;;;;;5072248;28;20071;-65
2023/03/16 03:14:37;;;;;;;7.72;3.15;;;18.60;59.80;;;;;;5067937;28;20110;-65
2023/03/16 03:17:06;;;;;;;7.82;2.55;;;18.70;59.70;;;;;;5052945;28;20440;-66
2023/03/16 03:19:33;;;;;;;6.47;2.78;;;18.70;59.60;;;;;;5035712;28;20106;-66
2023/03/16 03:22:05;;;;;;;6.78;2.92;;;18.80;59.60;;;;;;5066615;28;20060;-65
2023/03/16 03:24:33;;;;;;;8.07;2.78;;;18.80;59.50;;;;;;5072849;28;20511;-65
2023/03/16 03:27:04;;;;;;;7.28;3.97;;;18.90;59.40;;;;;;5054909;28;20053;-65
2023/03/16 03:29:33;;;;;;;6.80;2.92;;;18.90;59.30;;;;;;5082569;28;20577;-65
2023/03/16 03:32:00;;;;;;;7.75;2.03;;;18.90;59.20;;;;;;5092740;28;20479;-66
2023/03/16 03:34:27;;;;;;;7.78;3.25;;;19.00;59.20;;;;;;5090157;28;20070;-66
2023/03/16 03:36:54;;;;;;;8.60;3.17;;;19.00;59.10;;;;;;5051651;28;20048;-66
2023/03/16 03:39:23;;;;;;;7.15;3.25;;;19.00;59.10;;;;;;5054244;28;20131;-66
2023/03/16 03:41:53;;;;;;;9.73;3.25;;;19.10;59.10;;;;;;5072849;28;20056;-66
2023/03/16 03:44:20;;;;;;;7.60;3.25;;;19.10;59.10;;;;;;5072241;28;20079;-65
2023/03/16 03:46:47;;;;;;;6.63;2.85;;;19.10;59.00;;;;;;5071994;28;20044;-66
2023/03/16 03:49:15;;;;;;;8.48;3.15;;;19.10;58.90;;;;;;5054503;28;20135;-65
2023/03/16 03:51:42;;;;;;;4.93;2.03;;;19.10;58.90;;;;;;5071342;28;20432;-65
2023/03/16 03:54:09;;;;;;;5.43;2.90;;;19.10;58.90;;;;;;5041505;28;20053;-65
2023/03/16 03:56:37;;;;;;;6.63;3.20;;;19.00;58.80;;;;;;5065116;28;20048;-65
2023/03/16 03:59:04;;;;;;;5.97;2.80;;;19.10;58.80;;;;;;5091224;28;20056;-65
2023/03/16 04:01:31;;;;;;;6.90;3.03;;;19.00;58.80;;;;;;5072012;28;20055;-65
2023/03/16 04:03:58;;;;;;;5.95;2.20;;;19.00;58.80;;;;;;5072055;28;20041;-65
2023/03/16 04:06:25;;;;;;;8.32;3.15;;;19.00;58.80;;;;;;5072172;28;20052;-66
2023/03/16 04:08:53;;;;;;;6.82;2.50;;;19.00;58.80;;;;;;5054132;28;20057;-65
2023/03/16 04:11:20;;;;;;;4.55;1.85;;;19.00;58.80;;;;;;5057131;28;20418;-66
2023/03/16 04:13:52;;;;;;;6.63;2.63;;;18.90;58.90;;;;;;5033781;28;20088;-66
2023/03/16 04:16:19;;;;;;;6.60;3.28;;;18.90;58.90;;;;;;5053538;28;20052;-65
2023/03/16 04:18:46;;;;;;;5.93;2.85;;;18.80;58.90;;;;;;5053602;28;20052;-65
2023/03/16 04:21:16;;;;;;;6.00;2.90;;;18.90;59.00;;;;;;5069156;28;20045;-65
2023/03/16 04:23:43;;;;;;;5.55;2.70;;;18.80;59.00;;;;;;5071613;28;20084;-65
2023/03/16 04:26:10;;;;;;;7.88;3.15;;;18.80;59.00;;;;;;5052676;28;20060;-65
2023/03/16 04:28:37;;;;;;;6.22;2.40;;;18.70;59.00;;;;;;5053735;28;20060;-65
2023/03/16 04:31:07;;;;;;;6.90;2.78;;;18.70;59.00;;;;;;5033353;28;20053;-66
2023/03/16 04:33:35;;;;;;;6.32;2.75;;;18.70;59.10;;;;;;5072025;28;20051;-65
2023/03/16 04:36:03;;;;;;;6.47;3.17;;;18.70;59.10;;;;;;5069875;28;22059;-65
2023/03/16 04:38:32;;;;;;;5.70;2.63;;;18.60;59.10;;;;;;5053193;28;20049;-65
2023/03/16 04:40:59;;;;;;;5.90;1.73;;;18.60;59.10;;;;;;5070212;28;20549;-65
2023/03/16 04:43:26;;;;;;;4.75;1.58;;;18.60;59.20;;;;;;5068533;28;20052;-67
2023/03/16 04:45:54;;;;;;;6.20;2.58;;;18.60;59.20;;;;;;5070241;28;20040;-65
2023/03/16 04:48:22;;;;;;;6.40;2.90;;;18.60;59.20;;;;;;5051768;28;20044;-65
2023/03/16 04:50:50;;;;;;;5.35;2.67;;;18.60;59.20;;;;;;5050499;28;20536;-65
2023/03/16 04:53:17;;;;;;;5.90;2.70;;;18.50;59.20;;;;;;5080671;28;20044;-65
2023/03/16 04:55:44;;;;;;;6.80;2.00;;;18.50;59.20;;;;;;5091310;28;20047;-66
2023/03/16 04:58:12;;;;;;;5.60;2.38;;;18.50;59.30;;;;;;5073731;28;20047;-65
2023/03/16 05:00:39;;;;;;;5.88;2.42;;;18.50;59.30;;;;;;5051689;28;20230;-65
2023/03/16 05:03:06;;;;;;;7.63;2.67;;;18.40;59.20;;;;;;5032951;28;20106;-65
2023/03/16 05:05:35;;;;;;;5.18;1.85;;;18.50;59.20;;;;;;5056186;28;20397;-65
2023/03/16 05:08:02;;;;;;;6.43;2.85;;;18.40;59.10;;;;;;5052581;28;20052;-65
2023/03/16 05:10:29;;;;;;;6.93;2.55;;;18.40;59.10;;;;;;5061213;28;20056;-65
2023/03/16 05:12:56;;;;;;;5.30;2.75;;;18.50;59.10;;;;;;5049290;28;20478;-65
2023/03/16 05:15:23;;;;;;;5.82;3.08;;;18.50;59.10;;;;;;5032396;28;20051;-66
2023/03/16 05:17:50;;;;;;;5.28;2.38;;;18.60;59.10;;;;;;5050975;28;20065;-65
2023/03/16 05:20:19;;;;;;;5.50;2.88;;;18.60;59.00;;;;;;5032441;28;20126;-65
2023/03/16 05:22:49;;;;;;;5.63;2.17;;;18.60;58.90;;;;;;5050102;28;20395;-65
2023/03/16 05:25:17;;;;;;;5.57;1.85;;;18.70;58.90;;;;;;5058309;28;20048;-65
2023/03/16 05:27:44;;;;;;;7.07;2.97;;;18.70;58.80;;;;;;5052432;28;20063;-64
2023/03/16 05:30:15;;;;;;;5.75;1.90;;;18.80;58.70;;;;;;5069067;28;20056;-65
2023/03/16 05:32:42;;;;;;;4.32;2.15;;;18.80;58.60;;;;;;5067042;28;20088;-65
2023/03/16 05:35:12;;;;;;;5.22;2.28;;;18.90;58.50;;;;;;5068971;28;20049;-65
2023/03/16 05:37:38;;;;;;;;;;;18.90;58.50;;;;;;5053362;28;20056;-65
2023/03/16 05:40:15;;;;;;;6.20;2.70;;;19.00;58.50;;;;;;5086463;28;19924;-65
2023/03/16 05:42:43;;;;;;;5.47;2.28;;;19.00;58.10;;;;;;5081246;28;20076;-66
2023/03/16 05:45:11;;;;;;;4.05;2.15;;;19.10;58.00;;;;;;5072225;28;20068;-67
2023/03/16 05:47:38;;;;;;;6.30;2.00;;;19.20;58.00;;;;;;5083285;28;20398;-65
2023/03/16 05:50:07;;;;;;;5.07;2.15;;;19.20;57.90;;;;;;5070337;28;20055;-65
2023/03/16 05:52:35;;;;;;;4.50;1.75;;;19.30;57.90;;;;;;5043430;28;20049;-66
2023/03/16 05:55:02;;;;;;;4.45;2.28;;;19.30;57.80;;;;;;5057094;28;20060;-65
2023/03/16 05:57:30;;;;;;;5.40;2.58;;;19.30;57.80;;;;;;5079684;28;20144;-65
2023/03/16 05:59:57;;;;;;;4.68;2.25;;;19.30;57.90;;;;;;5058898;28;20045;-66
2023/03/16 06:02:25;;;;;;;5.28;2.58;;;19.30;57.80;;;;;;5069637;28;20051;-65
2023/03/16 06:04:52;;;;;;;5.32;2.08;;;19.30;57.90;;;;;;5051901;28;20053;-65
2023/03/16 06:07:19;;;;;;;4.47;2.40;;;19.20;57.90;;;;;;5069950;28;20044;-65
2023/03/16 06:09:47;;;;;;;4.20;1.77;;;19.30;57.90;;;;;;5041894;28;20053;-66
2023/03/16 06:12:14;;;;;;;5.25;2.13;;;19.20;57.90;;;;;;5047246;28;20057;-66
2023/03/16 06:14:42;;;;;;;4.80;1.40;;;19.20;57.90;;;;;;5058141;28;20091;-65
2023/03/16 06:17:09;;;;;;;3.83;2.20;;;19.20;58.00;;;;;;5069579;28;20049;-65
2023/03/16 06:19:36;;;;;;;4.32;2.35;;;19.20;57.90;;;;;;5069792;28;20055;-66
2023/03/16 06:22:03;;;;;;;4.22;2.40;;;19.10;58.00;;;;;;5069685;28;20060;-65
2023/03/16 06:24:30;;;;;;;4.78;2.35;;;19.10;58.00;;;;;;5039752;28;20505;-65
2023/03/16 06:26:57;;;;;;;4.03;1.98;;;19.10;58.00;;;;;;5050076;28;20801;-65
2023/03/16 06:29:24;;;;;;;5.50;2.85;;;19.00;58.00;;;;;;5031591;28;20049;-65
2023/03/16 06:31:53;;;;;;;4.82;2.17;;;19.00;58.00;;;;;;5066017;28;20056;-65
2023/03/16 06:34:21;;;;;;;4.10;2.03;;;18.90;58.10;;;;;;5062915;28;20490;-65
2023/03/16 06:36:48;;;;;;;5.88;2.58;;;18.90;58.10;;;;;;5068625;28;20090;-65
2023/03/16 06:39:15;;;;;;;4.82;2.28;;;18.90;58.10;;;;;;5049184;28;20102;-66
2023/03/16 06:41:43;;;;;;;3.72;2.03;;;18.90;58.20;;;;;;5068901;28;20049;-65
2023/03/16 06:44:10;;;;;;;5.28;2.15;;;18.90;58.20;;;;;;5071099;28;20048;-66
2023/03/16 06:46:38;;;;;;;2.97;1.05;;;18.90;58.20;;;;;;5093152;28;20357;-65
2023/03/16 06:49:06;;;;;;;3.60;1.25;;;18.80;58.20;;;;;;5093398;28;20443;-66
2023/03/16 06:51:33;;;;;;;5.00;2.40;;;18.80;58.30;;;;;;5081801;28;20060;-66
2023/03/16 06:54:00;;;;;;;4.80;1.70;;;18.80;58.30;;;;;;5055267;28;20083;-66
2023/03/16 06:56:27;;;;;;;4.60;2.20;;;18.70;58.30;;;;;;5071106;28;20048;-65
2023/03/16 06:58:55;;;;;;;4.97;2.40;;;18.70;58.30;;;;;;5065358;28;20098;-65
2023/03/16 07:01:22;;;;;;;5.85;2.00;;;18.70;58.30;;;;;;5072893;28;20051;-65
2023/03/16 07:03:49;;;;;;;4.38;2.60;;;18.70;58.40;;;;;;5071995;28;20052;-65
2023/03/16 07:06:17;;;;;;;5.82;2.03;;;18.70;58.50;;;;;;5050554;28;20052;-72
2023/03/16 07:08:44;;;;;;;4.15;1.95;;;18.70;58.50;;;;;;5068345;28;20048;-64
2023/03/16 07:11:13;;;;;;;5.30;1.98;;;18.60;58.50;;;;;;5068476;28;20052;-64
2023/03/16 07:13:40;;;;;;;4.82;1.88;;;18.60;58.50;;;;;;5053596;28;20127;-63
2023/03/16 07:16:08;;;;;;;4.40;1.92;;;18.60;58.60;;;;;;5071560;28;20056;-64
2023/03/16 07:18:36;;;;;;;4.80;2.15;;;18.60;58.60;;;;;;5060287;28;20059;-63
2023/03/16 07:21:04;;;;;;;5.15;2.22;;;18.50;58.60;;;;;;5092707;28;20052;-64
2023/03/16 07:23:32;;;;;;;2.85;1.10;;;18.60;58.70;;;;;;5059844;28;20383;-64
2023/03/16 07:25:59;;;;;;;3.95;1.20;;;18.60;58.70;;;;;;5050123;28;20040;-66
2023/03/16 07:28:26;;;;;;;3.38;1.20;;;18.60;58.80;;;;;;5068983;28;20056;-64
2023/03/16 07:30:53;;;;;;;3.33;1.77;;;18.60;58.80;;;;;;5032349;28;20058;-64
2023/03/16 07:33:21;;;;;;;4.03;1.50;;;18.60;58.80;;;;;;5032683;28;20140;-64
2023/03/16 07:35:48;;;;;;;4.57;1.92;;;18.60;58.80;;;;;;5031589;28;20050;-64
2023/03/16 07:38:15;;;;;;;4.55;1.70;;;18.70;58.80;;;;;;5025949;28;20052;-63
2023/03/16 07:40:43;;;;;;;4.15;1.90;;;18.70;58.70;;;;;;5030918;28;20056;-64
2023/03/16 07:43:10;;;;;;;3.80;1.83;;;18.80;58.60;;;;;;5028346;28;20782;-64
2023/03/16 07:45:37;;;;;;;3.75;1.50;;;18.80;58.50;;;;;;5028606;28;20060;-64
2023/03/16 07:48:04;;;;;;;3.40;1.38;;;18.90;58.50;;;;;;5027418;28;20145;-64
2023/03/16 07:50:32;;;;;;;3.90;1.08;;;18.90;58.40;;;;;;5031666;28;20496;-64
2023/03/16 07:52:59;;;;;;;3.88;1.15;;;19.00;58.30;;;;;;5029748;28;20057;-64
2023/03/16 07:55:26;;;;;;;4.22;1.92;;;19.00;58.20;;;;;;5031820;28;20049;-64
2023/03/16 07:57:54;;;;;;;5.47;2.25;;;19.10;58.10;;;;;;5028902;28;20522;-64
2023/03/16 08:00:22;;;;;;;4.38;1.60;;;19.10;58.00;;;;;;5029700;28;20057;-65
2023/03/16 08:02:52;;;;;;;5.15;1.23;;;19.20;58.00;;;;;;5026510;28;20045;-64
2023/03/16 08:05:20;;;;;;;4.03;1.92;;;19.20;57.90;;;;;;5025162;28;20041;-64
2023/03/16 08:07:47;;;;;;;4.38;0.98;;;19.20;57.80;;;;;;5023978;28;20041;-64
2023/03/16 08:10:14;;;;;;;3.75;1.60;;;19.30;57.80;;;;;;5029205;28;20391;-65
2023/03/16 08:12:41;;;;;;;3.85;1.23;;;19.30;57.80;;;;;;5030833;28;20426;-64
2023/03/16 08:15:11;;;;;;;3.25;1.48;;;19.20;57.80;;;;;;5030362;28;20049;-64
2023/03/16 08:17:40;;;;;;;4.07;1.58;;;19.30;57.80;;;;;;5028567;28;20064;-64
2023/03/16 08:20:09;;;;;;;4.00;1.70;;;19.30;57.80;;;;;;5027660;28;20058;-64
2023/03/16 08:22:36;;;;;;;3.75;1.70;;;19.20;57.80;;;;;;5031637;28;20045;-63
2023/03/16 08:25:04;;;;;;;4.72;2.03;;;19.20;57.90;;;;;;5030065;28;20045;-64
2023/03/16 08:27:31;;;;;;;3.95;1.70;;;19.20;57.90;;;;;;5031356;28;20107;-64
2023/03/16 08:30:03;;;;;;;2.78;1.05;;;19.20;57.90;;;;;;5050158;28;20056;-64
2023/03/16 08:32:32;;;;;;;4.50;1.85;;;19.20;57.90;;;;;;5070881;28;20552;-65
2023/03/16 08:34:59;;;;;;;3.42;1.58;;;19.10;57.80;;;;;;5052281;28;20063;-64
2023/03/16 08:37:26;;;;;;;2.47;1.13;;;19.10;57.80;;;;;;5069782;28;20049;-64
2023/03/16 08:39:53;;;;;;;4.05;2.10;;;19.10;57.90;;;;;;5051004;28;20052;-64
2023/03/16 08:42:21;;;;;;;4.65;1.80;;;19.10;57.90;;;;;;5051718;28;20051;-64
2023/03/16 08:44:48;;;;;;;5.15;1.45;;;19.10;57.90;;;;;;5052118;28;20481;-64
2023/03/16 08:47:15;;;;;;;3.60;1.67;;;19.00;57.90;;;;;;5052232;28;20059;-64
2023/03/16 08:49:43;;;;;;;3.70;1.05;;;19.10;58.00;;;;;;5066770;28;20055;-64
2023/03/16 08:52:11;;;;;;;2.88;0.88;;;19.00;57.90;;;;;;5043675;28;20083;-63
2023/03/16 08:54:40;;;;;;;4.90;1.05;;;19.00;57.90;;;;;;5068679;28;20449;-63
2023/03/16 08:57:09;;;;;;;3.70;1.63;;;19.00;58.00;;;;;;5069264;28;20036;-63
2023/03/16 08:59:36;;;;;;;4.60;1.25;;;19.00;58.00;;;;;;5066747;28;20420;-64
2023/03/16 09:02:04;;;;;;;3.03;1.65;;;19.00;58.00;;;;;;5049743;28;20047;-64
2023/03/16 09:04:31;;;;;;;3.45;1.05;;;19.00;58.00;;;;;;5051308;28;20425;-64
2023/03/16 09:06:59;;;;;;;3.67;1.55;;;18.90;58.00;;;;;;5033489;28;20049;-64
2023/03/16 09:09:27;;;;;;;3.60;1.42;;;18.90;58.00;;;;;;5068440;28;20064;-63
2023/03/16 09:11:55;;;;;;;4.93;1.98;;;18.90;58.00;;;;;;5070010;28;20102;-63
2023/03/16 09:14:23;;;;;;;4.38;1.92;;;18.90;58.10;;;;;;5070144;28;20567;-63
2023/03/16 09:16:51;;;;;;;4.03;1.88;;;18.80;58.10;;;;;;5052189;28;20056;-64
2023/03/16 09:19:18;;;;;;;3.33;1.70;;;18.80;58.10;;;;;;5070405;28;20491;-63
2023/03/16 09:21:45;;;;;;;3.65;1.50;;;18.80;58.20;;;;;;5070500;28;20044;-63
2023/03/16 09:24:14;;;;;;;3.53;1.60;;;18.80;58.20;;;;;;5051733;28;20109;-63
2023/03/16 09:26:41;;;;;;;3.90;1.20;;;18.80;58.30;;;;;;5052241;28;20056;-64
2023/03/16 09:29:08;;;;;;;3.55;1.55;;;18.80;58.30;;;;;;5069486;28;20469;-64
2023/03/16 09:31:36;;;;;;;3.75;1.65;;;18.70;58.30;;;;;;5052013;28;20087;-63
2023/03/16 09:34:03;;;;;;;3.70;1.75;;;18.70;58.30;;;;;;5070353;28;20052;-64
2023/03/16 09:36:32;;;;;;;3.83;1.35;;;18.70;58.30;;;;;;5052157;28;20052;-63
2023/03/16 09:38:59;;;;;;;3.22;1.27;;;18.70;58.30;;;;;;5070236;28;20049;-64
2023/03/16 09:41:38;;;;;;;3.88;1.13;;;18.70;58.30;;;;;;5052164;28;20414;-63
2023/03/16 09:44:12;;;;;;;3.25;1.00;;;18.70;58.40;;;;;;5068200;28;20049;-63
2023/03/16 09:46:43;;;;;;;2.72;0.73;;;18.70;58.40;;;;;;5069775;28;20057;-64
2023/03/16 09:49:11;;;;;;;3.42;1.30;;;18.60;58.30;;;;;;5052058;28;20055;-64
2023/03/16 09:51:44;;;;;;;2.70;1.27;;;18.60;58.30;;;;;;5069740;28;20645;-63
2023/03/16 09:54:20;;;;;;;3.92;1.65;;;18.60;58.30;;;;;;5070060;28;20067;-63
2023/03/16 09:56:50;;;;;;;3.13;1.48;;;18.60;58.30;;;;;;5069839;28;20060;-63
2023/03/16 09:59:17;;;;;;;2.72;1.42;;;18.60;58.30;;;;;;5069836;28;20118;-64
2023/03/16 10:01:58;;;;;;;3.40;0.95;;;18.60;58.30;;;;;;5050450;28;20143;-64
2023/03/16 10:04:39;;;;;;;2.88;0.98;;;18.70;58.30;;;;;;5052030;28;20436;-64
2023/03/16 10:07:20;;;;;;;3.88;1.70;;;18.70;58.20;;;;;;5031959;28;20055;-63
2023/03/16 10:09:55;;;;;;;2.50;0.98;;;18.70;58.20;;;;;;5049894;28;20167;-63
2023/03/16 10:12:29;;;;;;;4.07;1.83;;;18.80;58.20;;;;;;5049744;28;20057;-63
2023/03/16 10:15:03;;;;;;;2.90;0.75;;;18.90;58.10;;;;;;5031679;28;20053;-64
2023/03/16 10:17:36;;;;;;;3.47;1.30;;;18.90;58.00;;;;;;5041570;28;20509;-64
2023/03/16 10:20:07;;;;;;;3.53;1.45;;;18.90;57.90;;;;;;5073009;28;20125;-64
2023/03/16 10:22:38;;;;;;;2.28;1.17;;;19.00;57.80;;;;;;5055552;28;20052;-63
2023/03/16 10:25:13;;;;;;;3.05;0.98;;;19.10;57.70;;;;;;5073546;28;20135;-64
2023/03/16 10:27:44;;;;;;;3.05;1.52;;;19.20;57.60;;;;;;5072699;28;20088;-64
2023/03/16 10:30:21;;;;;;;2.67;1.05;;;19.30;57.60;;;;;;5055322;28;20086;-63
2023/03/16 10:32:48;;;;;;;3.63;1.33;;;19.30;57.50;;;;;;5072930;28;20158;-64
2023/03/16 10:35:25;;;;;;;3.55;1.27;;;19.30;57.40;;;;;;5055027;28;20052;-63
2023/03/16 10:37:52;;;;;;;2.40;1.05;;;19.30;57.30;;;;;;5072528;28;20063;-63
2023/03/16 10:40:21;;;;;;;3.40;1.40;;;19.40;57.40;;;;;;5055431;28;20063;-63
2023/03/16 10:42:49;;;;;;;2.03;0.60;;;19.30;57.30;;;;;;5055360;28;20181;-63
2023/03/16 10:45:27;;;;;;;3.53;1.05;;;19.30;57.30;;;;;;5072292;28;20047;-64
2023/03/16 10:48:04;;;;;;;3.50;1.58;;;19.30;57.20;;;;;;5039257;28;20049;-63
2023/03/16 10:50:33;;;;;;;2.88;1.08;;;19.40;57.40;;;;;;5053279;28;20049;-64
2023/03/16 10:53:01;;;;;;;3.00;1.27;;;19.40;57.30;;;;;;5054923;28;20048;-63
2023/03/16 10:55:32;;;;;;;2.80;0.47;;;19.40;57.40;;;;;;5072831;28;20044;-64
2023/03/16 10:58:01;;;;;;;3.05;1.40;;;19.30;57.30;;;;;;5071024;28;20062;-63
2023/03/16 11:00:30;;;;;;;2.90;1.30;;;19.30;57.30;;;;;;5049220;28;20559;-64
2023/03/16 11:02:58;;;;;;;2.85;1.05;;;19.30;57.40;;;;;;5070163;28;20155;-64
2023/03/16 11:05:29;;;;;;;2.95;1.30;;;19.30;57.30;;;;;;5053046;28;20048;-64
2023/03/16 11:08:01;;;;;;;3.22;1.42;;;19.30;57.40;;;;;;5035169;28;20060;-64
2023/03/16 11:10:33;;;;;;;3.75;0.90;;;19.30;57.40;;;;;;5034883;28;20045;-64
2023/03/16 11:13:11;;;;;;;2.63;1.45;;;19.30;57.40;;;;;;5034301;28;20068;-64
2023/03/16 11:15:42;;;;;;;3.63;1.35;;;19.30;57.50;;;;;;5061461;28;20063;-65
2023/03/16 11:18:19;;;;;;;2.70;0.98;;;19.20;57.50;;;;;;5070090;28;20040;-64
2023/03/16 11:20:47;;;;;;;3.05;1.10;;;19.20;57.50;;;;;;5071801;28;20058;-65
2023/03/16 11:23:17;;;;;;;2.47;0.90;;;19.20;57.60;;;;;;5075808;28;20516;-65
2023/03/16 11:25:50;;;;;;;2.47;1.15;;;19.20;57.70;;;;;;5061213;28;20424;-65
2023/03/16 11:28:32;;;;;;;2.80;1.45;;;19.10;57.60;;;;;;5074533;28;20111;-65
2023/03/16 11:31:11;;;;;;;1.92;0.45;;;19.10;57.70;;;;;;5055823;28;20052;-65
2023/03/16 11:33:39;;;;;;;3.25;1.83;;;19.10;57.70;;;;;;5058606;28;20055;-65
2023/03/16 11:36:24;;;;;;;2.72;1.13;;;19.00;57.70;;;;;;5062789;28;20107;-64
2023/03/16 11:39:03;;;;;;;2.25;0.73;;;19.10;57.90;;;;;;5053842;28;20063;-65
2023/03/16 11:41:41;;;;;;;3.40;1.13;;;19.10;57.90;;;;;;5068572;28;20044;-66
2023/03/16 11:44:19;;;;;;;3.13;0.85;;;19.00;57.90;;;;;;5053103;28;20056;-65
2023/03/16 11:46:53;;;;;;;2.70;0.80;;;19.00;58.00;;;;;;5051838;28;20397;-65
2023/03/16 11:49:34;;;;;;;2.90;0.75;;;19.00;58.00;;;;;;5060183;28;20143;-65
2023/03/16 11:52:07;;;;;;;2.75;1.27;;;19.00;58.70;;;;;;5048612;28;20053;-64
2023/03/16 11:54:47;;;;;;;3.05;1.38;;;19.00;58.10;;;;;;5060832;28;20056;-64
2023/03/16 11:57:28;;;;;;;2.90;1.70;;;18.90;58.10;;;;;;5065176;28;20056;-65
2023/03/16 12:00:13;;;;;;;1.77;0.50;;;18.90;58.20;;;;;;5067491;28;20052;-64
2023/03/16 12:02:52;;;;;;;2.95;0.80;;;18.90;58.30;;;;;;5050911;28;20055;-64
2023/03/16 12:05:48;;;;;;;2.92;1.65;;;18.90;58.20;;;;;;5051279;28;20055;-65
2023/03/16 12:08:32;;;;;;;2.97;0.65;;;18.90;58.30;;;;;;5066670;28;20084;-65
2023/03/16 12:11:03;;;;;;;3.28;0.80;;;18.90;58.30;;;;;;5068159;28;20048;-66
2023/03/16 12:13:47;;;;;;;2.20;1.27;;;18.80;58.20;;;;;;5050300;28;20044;-65
2023/03/16 12:16:21;;;;;;;2.70;1.40;;;18.80;58.30;;;;;;5068972;28;20065;-65
2023/03/16 12:18:52;;;;;;;2.65;1.25;;;18.80;58.40;;;;;;5050606;28;20158;-64
2023/03/16 12:21:23;;;;;;;2.50;0.70;;;18.80;58.40;;;;;;5058439;28;20529;-67
2023/03/16 12:23:52;;;;;;;1.77;0.50;;;18.80;58.40;;;;;;5043023;28;20442;-65
2023/03/16 12:26:22;;;;;;;2.88;1.20;;;18.80;58.40;;;;;;5051716;28;20041;-65
2023/03/16 12:28:51;;;;;;;3.80;1.33;;;18.80;58.40;;;;;;5051971;28;20056;-65
2023/03/16 12:31:26;;;;;;;1.85;1.10;;;18.80;58.50;;;;;;5067714;28;20693;-64
2023/03/16 12:34:08;;;;;;;2.58;0.80;;;18.80;58.50;;;;;;5039480;28;20053;-63
2023/03/16 12:36:57;;;;;;;2.00;0.50;;;18.80;58.60;;;;;;5032453;28;20071;-66
2023/03/16 12:39:35;;;;;;;2.10;0.52;;;18.80;58.60;;;;;;5050641;28;20504;-63
2023/03/16 12:42:14;;;;;;;2.22;1.08;;;18.80;58.60;;;;;;5067294;28;20055;-65
2023/03/16 12:44:47;;;;;;;2.28;0.52;;;18.80;58.70;;;;;;5070022;28;20049;-64
2023/03/16 12:47:22;;;;;;;2.05;0.73;;;18.70;58.60;;;;;;5053017;28;20412;-64
2023/03/16 12:49:50;;;;;;;1.73;0.52;;;18.70;58.60;;;;;;5052633;28;20408;-65
2023/03/16 12:52:18;;;;;;;1.92;0.63;;;18.70;58.70;;;;;;5052627;28;20084;-64
2023/03/16 12:54:53;;;;;;;2.38;1.08;;;18.70;58.60;;;;;;5051636;28;20064;-64
2023/03/16 12:57:25;;;;;;;1.55;0.43;;;18.70;58.70;;;;;;5070641;28;20771;-65